Time;durP1;ratioP1;P1;durP2;ratioP2;P2;SDS_P1;SDS_P2;PMS_P1;PMS_P2;Temp;Humidity;BMP_temperature;BMP_pressure;BME280_temperature;BME280_humidity;BME280_pressure;Samples;Min_cycle;Max_cycle;Signal;HPM_P1;HPM_P2
2022/05/14 00:01:01;;;;;;;0.40;0.40;;;;;;;9.06;100.00;101051.00;5035440;28;20230;-70
2022/05/14 00:03:29;;;;;;;0.40;0.40;;;;;;;8.98;100.00;101047.66;5037817;28;20197;-70
2022/05/14 00:05:59;;;;;;;1.03;0.53;;;;;;;9.06;100.00;101049.25;5042867;28;20214;-71
2022/05/14 00:08:26;;;;;;;0.30;0.30;;;;;;;9.04;100.00;101045.84;5037698;28;20196;-70
2022/05/14 00:13:52;;;;;;;0.30;0.30;;;;;;;9.04;100.00;101044.94;5001527;28;20790;-70
2022/05/14 00:16:19;;;;;;;0.40;0.40;;;;;;;9.06;100.00;101048.41;4985812;28;20209;-71
2022/05/14 00:18:46;;;;;;;0.60;0.60;;;;;;;8.98;100.00;101048.50;5015314;28;20674;-69
2022/05/14 00:21:13;;;;;;;0.30;0.30;;;;;;;8.99;100.00;101049.34;5046062;28;20215;-71
2022/05/14 00:23:39;;;;;;;0.53;0.53;;;;;;;8.97;100.00;101054.59;5031774;28;20207;-69
2022/05/14 00:26:06;;;;;;;0.40;0.40;;;;;;;8.94;100.00;101053.78;5036194;28;20564;-70
2022/05/14 00:28:33;;;;;;;0.40;0.40;;;;;;;9.03;100.00;101044.09;5041454;28;20199;-73
2022/05/14 00:31:01;;;;;;;2.20;0.77;;;;;;;8.98;100.00;101047.66;5036847;28;20199;-71
2022/05/14 00:33:27;;;;;;;0.30;0.30;;;;;;;9.03;100.00;101051.91;5037260;28;20195;-70
2022/05/14 00:35:54;;;;;;;0.30;0.30;;;;;;;9.03;100.00;101049.31;5039000;28;20203;-70
2022/05/14 00:38:20;;;;;;;0.40;0.40;;;;;;;8.96;100.00;101052.88;5040464;28;20222;-69
2022/05/14 00:40:54;;;;;;;0.40;0.40;;;;;;;8.90;100.00;101055.56;5038694;28;20468;-69
2022/05/14 00:43:21;;;;;;;0.60;0.60;;;;;;;8.95;100.00;101055.47;5039869;28;20845;-69
2022/05/14 00:45:53;;;;;;;0.40;0.40;;;;;;;9.05;100.00;101055.34;5036776;28;20298;-71
2022/05/14 00:48:22;;;;;;;0.30;0.30;;;;;;;8.93;100.00;101057.25;5033343;28;20699;-70
2022/05/14 00:50:53;;;;;;;0.50;0.50;;;;;;;8.99;100.00;101052.84;5031526;28;20216;-70
2022/05/14 00:53:23;;;;;;;0.50;0.40;;;;;;;8.80;99.98;101059.13;5039674;28;20222;-69
2022/05/14 00:55:53;;;;;;;0.20;0.20;;;;;;;8.92;100.00;101061.59;5034901;28;20204;-72
2022/05/14 00:58:27;;;;;;;0.70;0.70;;;;;;;8.76;100.00;101062.63;5042142;28;20679;-69
2022/05/14 01:00:54;;;;;;;0.50;0.50;;;;;;;8.74;100.00;101059.19;5037594;28;20214;-69
2022/05/14 01:03:23;;;;;;;0.43;0.43;;;;;;;8.73;100.00;101060.09;5035213;28;20203;-71
2022/05/14 01:05:50;;;;;;;0.40;0.40;;;;;;;8.68;100.00;101057.53;5037758;28;20685;-71
2022/05/14 01:08:17;;;;;;;0.30;0.30;;;;;;;8.63;100.00;101054.13;5034660;28;20239;-69
2022/05/14 01:10:46;;;;;;;0.50;0.50;;;;;;;8.66;100.00;101051.50;5040337;28;20220;-70
2022/05/14 01:13:12;;;;;;;0.37;0.37;;;;;;;8.69;100.00;101047.13;5038112;28;20286;-70
2022/05/14 01:15:46;;;;;;;0.33;0.33;;;;;;;8.68;100.00;101049.72;5038711;28;20254;-69
2022/05/14 01:18:13;;;;;;;0.50;0.50;;;;;;;8.69;100.00;101039.31;5030717;28;20201;-70
2022/05/14 01:20:41;;;;;;;0.30;0.30;;;;;;;8.61;100.00;101041.13;5038995;28;20226;-69
2022/05/14 01:23:22;;;;;;;0.40;0.40;;;;;;;8.66;100.00;101041.09;5038663;28;20203;-69
2022/05/14 01:26:29;;;;;;;0.40;0.40;;;;;;;8.68;100.00;101036.75;5034612;28;20593;-69
2022/05/14 01:29:06;;;;;;;0.30;0.30;;;;;;;8.74;100.00;101041.00;5030760;28;20215;-69
2022/05/14 01:31:33;;;;;;;0.40;0.40;;;;;;;8.73;100.00;101040.16;5039730;28;20282;-71
2022/05/14 01:34:01;;;;;;;0.50;0.50;;;;;;;8.60;100.00;101039.44;5032043;28;20207;-71
2022/05/14 01:36:28;;;;;;;0.50;0.50;;;;;;;8.51;100.00;101034.31;5038127;28;20608;-70
2022/05/14 01:38:55;;;;;;;0.60;0.40;;;;;;;8.47;100.00;101038.69;5037838;28;20195;-69
2022/05/14 01:41:24;;;;;;;0.20;0.20;;;;;;;8.39;100.00;101037.91;5032631;28;20220;-70
2022/05/14 01:43:51;;;;;;;0.20;0.20;;;;;;;8.57;100.00;101025.63;5035867;28;20192;-70
2022/05/14 01:46:18;;;;;;;0.33;0.33;;;;;;;8.48;100.00;101031.78;5034070;28;20233;-70
2022/05/14 01:48:46;;;;;;;0.50;0.50;;;;;;;8.45;100.00;101031.81;5041025;28;20200;-70
2022/05/14 01:51:13;;;;;;;0.47;0.47;;;;;;;8.36;100.00;101031.88;5041414;28;20198;-70
2022/05/14 01:53:40;;;;;;;0.30;0.30;;;;;;;8.23;100.00;101041.50;5033226;28;20199;-70
2022/05/14 01:56:07;;;;;;;0.33;0.33;;;;;;;8.22;100.00;101032.88;5035573;28;20195;-70
2022/05/14 01:58:39;;;;;;;0.50;0.50;;;;;;;8.22;100.00;101032.88;5033109;28;20184;-69
2022/05/14 02:01:13;;;;;;;0.63;0.63;;;;;;;8.26;100.00;101037.16;5035433;28;20210;-69
2022/05/14 02:03:42;;;;;;;0.33;0.33;;;;;;;8.24;100.00;101032.84;5037516;28;20226;-71
2022/05/14 02:06:10;;;;;;;0.50;0.50;;;;;;;8.14;100.00;101038.16;5033880;28;20304;-69
2022/05/14 02:08:36;;;;;;;0.40;0.40;;;;;;;8.28;100.00;101024.16;5041157;28;20206;-69
2022/05/14 02:11:03;;;;;;;0.93;0.33;;;;;;;8.11;100.00;101032.13;5036435;28;20210;-70
2022/05/14 02:13:31;;;;;;;0.53;0.53;;;;;;;8.03;100.00;101039.97;5040618;28;20221;-71
2022/05/14 02:15:59;;;;;;;0.20;0.20;;;;;;;8.11;100.00;101030.38;5041141;28;20196;-69
2022/05/14 02:18:26;;;;;;;0.30;0.30;;;;;;;8.04;100.00;101031.31;5032299;28;20298;-70
2022/05/14 02:20:53;;;;;;;0.33;0.33;;;;;;;7.99;100.00;101034.84;5039691;28;20595;-69
2022/05/14 02:23:20;;;;;;;0.20;0.20;;;;;;;8.06;100.00;101031.31;5034286;28;20651;-69
2022/05/14 02:25:46;;;;;;;0.50;0.50;;;;;;;8.03;100.00;101026.97;5033678;28;20287;-70
2022/05/14 02:28:14;;;;;;;0.30;0.30;;;;;;;8.06;100.00;101026.97;5033616;28;20206;-70
2022/05/14 02:30:41;;;;;;;0.57;0.57;;;;;;;8.04;100.00;101022.63;5036662;28;20211;-70
2022/05/14 02:33:09;;;;;;;0.37;0.37;;;;;;;8.07;100.00;101023.50;5039122;28;20213;-69
2022/05/14 02:35:36;;;;;;;0.30;0.30;;;;;;;8.29;100.00;101020.69;5029892;28;20210;-70
2022/05/14 02:38:04;;;;;;;0.30;0.30;;;;;;;8.29;100.00;101024.13;5035390;28;20311;-69
2022/05/14 02:40:30;;;;;;;0.30;0.30;;;;;;;8.38;100.00;101027.53;5043892;28;20223;-69
2022/05/14 02:42:57;;;;;;;0.37;0.37;;;;;;;8.30;100.00;101019.78;5041666;28;20204;-70
2022/05/14 02:45:24;;;;;;;0.20;0.20;;;;;;;8.43;100.00;101024.03;5040057;28;20202;-70
2022/05/14 02:47:50;;;;;;;0.20;0.20;;;;;;;8.58;100.00;101028.16;5031359;28;20254;-70
2022/05/14 02:50:19;;;;;;;0.60;0.60;;;;;;;8.71;100.00;101019.38;5042027;28;20318;-70
2022/05/14 02:52:46;;;;;;;1.07;0.60;;;;;;;8.74;100.00;101018.44;5033957;28;20196;-70
2022/05/14 02:55:13;;;;;;;0.50;0.50;;;;;;;8.75;100.00;101014.97;5039617;28;20191;-70
2022/05/14 02:57:40;;;;;;;0.40;0.40;;;;;;;8.75;100.00;101027.13;5043932;28;20235;-70
2022/05/14 03:00:10;;;;;;;1.40;1.03;;;;;;;8.92;100.00;101019.97;5030570;28;20223;-70
2022/05/14 03:02:37;;;;;;;0.57;0.57;;;;;;;9.03;100.00;101022.44;5041299;28;20575;-69
2022/05/14 03:05:04;;;;;;;0.40;0.40;;;;;;;8.98;100.00;101022.50;5034322;28;20709;-69
2022/05/14 03:07:32;;;;;;;0.53;0.53;;;;;;;9.01;100.00;101025.06;5036169;28;20230;-73
2022/05/14 03:09:59;;;;;;;0.40;0.40;;;;;;;9.07;100.00;101026.72;5038774;28;20219;-69
2022/05/14 03:12:26;;;;;;;0.40;0.40;;;;;;;9.09;100.00;101030.16;5043571;28;20203;-69
2022/05/14 03:14:52;;;;;;;0.40;0.40;;;;;;;9.12;100.00;101021.44;5039696;28;20256;-71
2022/05/14 03:17:21;;;;;;;0.60;0.60;;;;;;;9.25;100.00;101017.78;5040650;28;20200;-70
2022/05/14 03:19:49;;;;;;;0.40;0.40;;;;;;;9.25;100.00;101030.78;5039255;28;20231;-70
2022/05/14 03:22:16;;;;;;;0.43;0.43;;;;;;;9.27;100.00;101022.09;5030669;28;20208;-70
2022/05/14 03:24:44;;;;;;;0.43;0.43;;;;;;;9.33;100.00;101033.31;5039598;28;20203;-69
2022/05/14 03:27:13;;;;;;;0.50;0.50;;;;;;;9.37;100.00;101024.56;5039792;28;20694;-70
2022/05/14 03:29:41;;;;;;;0.37;0.37;;;;;;;9.34;100.00;101032.41;5036667;28;20687;-70
2022/05/14 03:32:09;;;;;;;0.60;0.60;;;;;;;9.40;100.00;101046.19;5035365;28;20223;-70
2022/05/14 03:34:37;;;;;;;0.70;0.70;;;;;;;9.54;100.00;101037.31;5043425;28;20218;-70
2022/05/14 03:37:04;;;;;;;0.67;0.67;;;;;;;9.52;100.00;101042.56;5034287;28;20203;-71
2022/05/14 03:39:31;;;;;;;0.30;0.30;;;;;;;9.59;100.00;101041.56;5033766;28;20225;-70
2022/05/14 03:41:59;;;;;;;0.53;0.53;;;;;;;9.67;100.00;101036.25;5040062;28;20220;-70
2022/05/14 03:44:26;;;;;;;0.57;0.57;;;;;;;9.62;100.00;101044.13;5042459;28;20200;-70
2022/05/14 03:46:53;;;;;;;0.67;0.40;;;;;;;9.74;100.00;101034.41;5036972;28;20253;-69
2022/05/14 03:49:19;;;;;;;0.50;0.50;;;;;;;9.78;100.00;101036.06;5041126;28;20800;-70
2022/05/14 03:51:46;;;;;;;0.50;0.50;;;;;;;9.81;100.00;101038.63;5041580;28;20195;-71
2022/05/14 03:54:12;;;;;;;0.37;0.37;;;;;;;9.84;100.00;101035.97;5030817;28;20677;-70
2022/05/14 03:56:39;;;;;;;0.40;0.40;;;;;;;9.88;99.66;101042.00;5042846;28;20231;-69
2022/05/14 03:59:09;;;;;;;0.40;0.40;;;;;;;9.98;100.00;101046.16;5041027;28;20242;-71
2022/05/14 04:01:35;;;;;;;0.50;0.50;;;;;;;9.98;98.68;101040.97;5035681;28;20214;-71
2022/05/14 04:04:03;;;;;;;0.33;0.33;;;;;;;10.04;99.86;101046.06;5041058;28;20210;-70
2022/05/14 04:06:29;;;;;;;0.40;0.40;;;;;;;10.12;98.71;101043.31;5042661;28;20678;-70
2022/05/14 04:08:56;;;;;;;0.40;0.40;;;;;;;10.16;99.09;101051.03;5033969;28;20237;-70
2022/05/14 04:11:22;;;;;;;0.40;0.40;;;;;;;10.17;96.39;101057.13;5033973;28;20293;-71
2022/05/14 04:13:50;;;;;;;0.30;0.30;;;;;;;10.23;96.44;101057.00;5041817;28;20499;-69
2022/05/14 04:16:18;;;;;;;0.40;0.40;;;;;;;10.27;96.20;101060.44;5040628;28;20275;-69
2022/05/14 04:18:44;;;;;;;0.40;0.40;;;;;;;10.35;96.33;101043.78;5038188;28;20250;-72
2022/05/14 04:21:11;;;;;;;0.50;0.50;;;;;;;10.38;96.13;101051.56;5040289;28;20298;-69
2022/05/14 04:23:38;;;;;;;0.50;0.50;;;;;;;10.45;96.23;101056.66;5039694;28;20325;-70
2022/05/14 04:26:05;;;;;;;0.60;0.60;;;;;;;10.47;95.43;101047.06;5034698;28;20199;-71
2022/05/14 04:28:33;;;;;;;0.50;0.50;;;;;;;10.52;94.36;101050.47;5039968;28;20204;-70
2022/05/14 04:30:59;;;;;;;0.40;0.40;;;;;;;10.63;96.04;101053.72;5041023;28;20214;-70
2022/05/14 04:33:28;;;;;;;0.80;0.47;;;;;;;10.67;95.22;101055.34;5034351;28;20197;-70
2022/05/14 04:35:55;;;;;;;0.30;0.30;;;;;;;10.72;95.39;101056.13;5041407;28;20279;-70
2022/05/14 04:38:22;;;;;;;0.23;0.23;;;;;;;10.80;95.06;101054.22;5037837;28;20682;-71
2022/05/14 04:40:49;;;;;;;0.40;0.40;;;;;;;10.84;94.04;101062.84;5036713;28;20231;-70
2022/05/14 04:43:16;;;;;;;0.27;0.27;;;;;;;10.98;95.09;101065.19;5031796;28;20199;-71
2022/05/14 04:45:43;;;;;;;0.37;0.37;;;;;;;11.05;94.86;101058.09;5038219;28;20202;-70
2022/05/14 04:48:11;;;;;;;0.30;0.30;;;;;;;11.10;93.93;101069.25;5042890;28;20635;-70
2022/05/14 04:50:39;;;;;;;0.27;0.27;;;;;;;11.14;94.27;101073.53;5041579;28;20243;-69
2022/05/14 04:53:07;;;;;;;0.67;0.63;;;;;;;11.20;94.33;101069.94;5042088;28;20248;-70
2022/05/14 04:55:33;;;;;;;0.10;0.10;;;;;;;11.29;94.55;101070.59;5031799;28;20207;-70
2022/05/14 04:58:00;;;;;;;0.50;0.50;;;;;;;11.35;94.40;101067.84;5031197;28;20313;-69
2022/05/14 05:00:27;;;;;;;0.20;0.20;;;;;;;11.43;93.67;101070.28;5040059;28;20254;-70
2022/05/14 05:05:40;;;;;;;0.20;0.20;;;;;;;11.61;92.03;101081.19;5038455;28;20298;-70
2022/05/14 05:08:40;;;;;;;0.67;0.53;;;;;;;11.63;91.43;101090.72;5032633;28;20215;-70
2022/05/14 05:11:14;;;;;;;0.53;0.23;;;;;;;11.72;91.98;101080.06;5037645;28;20263;-70
2022/05/14 05:14:01;;;;;;;0.17;0.17;;;;;;;11.77;91.41;101095.63;5038496;28;20210;-71
2022/05/14 05:16:32;;;;;;;0.20;0.20;;;;;;;11.84;89.75;101097.22;5037358;28;20280;-70
2022/05/14 05:19:14;;;;;;;0.30;0.30;;;;;;;11.95;90.00;101098.75;5032128;28;20318;-70
2022/05/14 05:21:48;;;;;;;0.53;0.30;;;;;;;12.10;91.24;101099.22;5037352;28;20485;-70
2022/05/14 05:24:24;;;;;;;0.40;0.40;;;;;;;12.18;89.26;101103.41;5037330;28;20261;-69
2022/05/14 05:27:05;;;;;;;0.20;0.20;;;;;;;12.21;88.00;101109.41;5036451;28;20200;-70
2022/05/14 05:29:55;;;;;;;0.20;0.20;;;;;;;12.31;88.89;101116.13;5033806;28;20295;-71
2022/05/14 05:32:32;;;;;;;0.20;0.20;;;;;;;12.40;88.57;101119.38;5039750;28;20197;-70
2022/05/14 05:35:14;;;;;;;0.20;0.20;;;;;;;12.51;87.32;101114.75;5031429;28;20612;-70
2022/05/14 05:38:03;;;;;;;0.10;0.10;;;;;;;12.57;85.94;101121.56;5033667;28;20668;-70
2022/05/14 05:40:36;;;;;;;0.20;0.10;;;;;;;12.72;86.09;101115.03;5029845;28;20226;-70
2022/05/14 05:43:23;;;;;;;0.20;0.20;;;;;;;12.81;84.52;101115.66;5039013;28;20195;-70
2022/05/14 05:46:05;;;;;;;0.33;0.20;;;;;;;12.86;84.05;101115.56;5028826;28;20210;-70
2022/05/14 05:48:45;;;;;;;0.13;0.13;;;;;;;12.95;84.15;101114.44;5035266;28;20220;-71
2022/05/14 05:52:04;;;;;;;0.13;0.13;;;;;;;12.99;83.90;101108.19;5035802;28;20290;-70
2022/05/14 06:00:18;;;;;;;0.63;0.40;;;;;;;13.11;82.99;101115.72;5036277;28;20289;-71
2022/05/14 06:03:00;;;;;;;0.20;0.20;;;;;;;13.23;82.87;101123.19;5039678;28;20324;-70
2022/05/14 06:05:37;;;;;;;0.30;0.30;;;;;;;13.37;80.52;101127.22;5048967;28;20189;-71
2022/05/14 06:08:14;;;;;;;0.30;0.30;;;;;;;13.43;79.42;101135.72;5034574;28;20684;-70
2022/05/14 06:10:54;;;;;;;0.30;0.30;;;;;;;13.52;78.85;101131.97;5041503;28;20232;-70
2022/05/14 06:13:32;;;;;;;0.03;0.03;;;;;;;13.69;78.58;101130.63;5038082;28;20197;-70
2022/05/14 06:16:00;;;;;;;0.10;0.10;;;;;;;13.78;77.67;101136.41;5037850;28;20265;-70
2022/05/14 06:18:34;;;;;;;0.37;0.37;;;;;;;13.88;76.54;101131.75;5040220;28;20490;-69
2022/05/14 06:21:03;;;;;;;0.27;0.27;;;;;;;14.00;77.40;101133.09;5034069;28;20219;-72
2022/05/14 06:23:38;;;;;;;0.20;0.20;;;;;;;13.99;74.91;101141.91;5037828;28;20201;-70
2022/05/14 06:26:08;;;;;;;0.63;0.40;;;;;;;14.08;73.28;101146.84;5040299;28;20202;-70
2022/05/14 06:28:43;;;;;;;0.37;0.37;;;;;;;14.21;74.30;101139.41;5043528;28;20208;-72
2022/05/14 06:31:22;;;;;;;0.37;0.30;;;;;;;14.28;75.17;101127.84;5037120;28;20197;-70
2022/05/14 06:33:55;;;;;;;0.30;0.30;;;;;;;14.34;74.88;101138.09;5039750;28;20199;-70
2022/05/14 06:36:35;;;;;;;0.50;0.50;;;;;;;14.51;74.11;101139.28;5032872;28;20705;-70
2022/05/14 06:39:06;;;;;;;0.20;0.20;;;;;;;14.65;69.66;101138.84;5034433;28;20750;-71
2022/05/14 06:41:48;;;;;;;0.20;0.20;;;;;;;14.83;69.84;101145.22;5032410;28;20770;-71
2022/05/14 06:44:28;;;;;;;0.47;0.40;;;;;;;14.93;70.03;101144.84;5033237;28;20224;-70
2022/05/14 06:47:05;;;;;;;0.20;0.20;;;;;;;14.96;68.92;101149.13;5030625;28;20274;-71
2022/05/14 06:49:52;;;;;;;0.40;0.40;;;;;;;15.04;68.46;101154.09;5037629;28;20226;-70
2022/05/14 06:52:34;;;;;;;0.10;0.10;;;;;;;15.14;67.62;101151.09;5039337;28;20196;-72
2022/05/14 06:55:13;;;;;;;0.50;0.30;;;;;;;15.30;67.15;101154.00;5038250;28;20217;-71
2022/05/14 06:57:54;;;;;;;0.20;0.20;;;;;;;15.46;65.99;101164.78;5038496;28;20607;-71
2022/05/14 07:00:45;;;;;;;0.30;0.30;;;;;;;15.46;64.91;101151.66;5037153;28;20269;-70
2022/05/14 07:09:22;;;;;;;0.30;0.20;;;;;;;15.75;62.93;101165.47;5040482;28;20213;-70
2022/05/14 07:12:12;;;;;;;0.20;0.20;;;;;;;15.79;62.16;101160.94;5035391;28;20196;-70
2022/05/14 07:14:47;;;;;;;0.30;0.20;;;;;;;15.92;63.14;101167.44;5035862;28;20197;-70
2022/05/14 07:17:18;;;;;;;0.30;0.30;;;;;;;15.97;62.40;101160.22;5035094;28;20633;-70
2022/05/14 07:19:58;;;;;;;0.10;0.10;;;;;;;16.07;60.88;101174.69;5032314;28;20630;-70
2022/05/14 07:22:41;;;;;;;0.40;0.40;;;;;;;16.07;60.90;101169.44;5035670;28;20213;-70
2022/05/14 07:25:24;;;;;;;0.37;0.37;;;;;;;16.15;60.29;101168.28;5038445;28;20744;-70
2022/05/14 07:28:11;;;;;;;0.30;0.30;;;;;;;16.25;61.49;101166.97;5036102;28;20222;-70
2022/05/14 07:30:44;;;;;;;0.20;0.20;;;;;;;16.33;59.59;101170.16;5038276;28;20586;-70
2022/05/14 07:33:16;;;;;;;0.30;0.30;;;;;;;16.35;58.89;101172.72;5032697;28;20260;-71
2022/05/14 07:36:03;;;;;;;1.23;0.40;;;;;;;16.45;61.81;101164.38;5035856;28;20588;-70
2022/05/14 07:38:41;;;;;;;0.20;0.20;;;;;;;16.51;58.72;101173.78;5034937;28;20206;-70
2022/05/14 07:41:18;;;;;;;2.03;0.57;;;;;;;16.65;57.93;101167.94;5037487;28;20617;-70
2022/05/14 07:44:02;;;;;;;0.63;0.60;;;;;;;16.83;58.81;101161.00;5035501;28;20257;-70
2022/05/14 07:46:45;;;;;;;2.93;0.50;;;;;;;16.98;55.84;101172.69;5030895;28;20237;-70
2022/05/14 07:49:27;;;;;;;0.30;0.23;;;;;;;17.01;56.61;101167.28;5034787;28;20586;-71
2022/05/14 07:52:18;;;;;;;0.50;0.50;;;;;;;17.04;54.75;101169.78;5039520;28;20890;-71
2022/05/14 07:55:19;;;;;;;1.10;0.33;;;;;;;17.15;53.94;101162.25;5031188;28;20895;-69
2022/05/14 07:58:07;;;;;;;0.20;0.20;;;;;;;17.18;54.21;101161.25;5034774;28;20218;-70
2022/05/14 08:01:09;;;;;;;0.23;0.23;;;;;;;17.14;52.61;101165.81;5034904;28;20302;-72
2022/05/14 08:03:53;;;;;;;0.13;0.13;;;;;;;17.29;52.89;101155.47;5037588;28;20284;-71
2022/05/14 08:06:35;;;;;;;0.60;0.60;;;;;;;17.41;52.17;101153.16;5031440;28;20618;-70
2022/05/14 08:09:16;;;;;;;0.40;0.40;;;;;;;17.59;50.37;101155.88;5033427;28;20490;-73
2022/05/14 08:11:54;;;;;;;0.57;0.30;;;;;;;17.65;50.52;101154.72;5032202;28;20201;-71
2022/05/14 08:14:40;;;;;;;0.37;0.37;;;;;;;17.63;50.09;101146.88;5038504;28;20199;-70
2022/05/14 08:17:27;;;;;;;0.37;0.30;;;;;;;17.97;51.20;101156.69;5027695;28;20195;-71
2022/05/14 08:20:07;;;;;;;0.40;0.40;;;;;;;18.00;47.94;101150.41;5029681;28;20248;-70
2022/05/14 08:26:05;;;;;;;0.77;0.77;;;;;;;18.25;49.85;101143.91;5034531;28;20191;-71
2022/05/14 08:28:51;;;;;;;0.37;0.37;;;;;;;18.33;50.47;101149.69;5032241;28;20694;-70
2022/05/14 08:31:21;;;;;;;0.40;0.40;;;;;;;18.22;49.30;101144.06;5032832;28;20286;-70
2022/05/14 08:34:00;;;;;;;0.20;0.20;;;;;;;18.19;50.32;101142.44;5036655;28;20265;-70
2022/05/14 08:36:39;;;;;;;0.20;0.20;;;;;;;18.25;49.43;101136.00;5032814;28;20613;-70
2022/05/14 08:42:03;;;;;;;1.80;0.53;;;;;;;18.80;48.53;101140.22;5028237;28;20227;-71
2022/05/14 08:44:38;;;;;;;0.40;0.40;;;;;;;19.01;46.27;101146.19;5032584;28;20207;-70
2022/05/14 08:47:57;;;;;;;1.07;0.40;;;;;;;18.92;48.17;101145.75;5035356;28;20209;-70
2022/05/14 08:50:44;;;;;;;0.60;0.40;;;;;;;18.95;47.56;101147.38;5033787;28;20311;-70
2022/05/14 08:53:29;;;;;;;1.00;0.43;;;;;;;19.07;45.52;101144.09;5033412;28;20232;-73
2022/05/14 08:59:17;;;;;;;0.40;0.40;;;;;;;19.11;45.54;101142.97;5041617;28;20238;-71
2022/05/14 09:01:52;;;;;;;0.27;0.27;;;;;;;19.25;46.06;101138.75;5037096;28;20208;-71
2022/05/14 09:04:41;;;;;;;0.20;0.20;;;;;;;19.11;45.92;101137.69;5038520;28;20196;-70
2022/05/14 09:07:22;;;;;;;0.63;0.30;;;;;;;18.93;45.61;101141.34;5030789;28;20235;-70
2022/05/14 09:10:04;;;;;;;0.43;0.40;;;;;;;18.97;45.73;101144.66;5036566;28;20253;-70
2022/05/14 09:12:57;;;;;;;0.23;0.23;;;;;;;19.04;44.49;101141.59;5024806;28;20227;-74
2022/05/14 09:15:27;;;;;;;0.33;0.30;;;;;;;18.90;44.78;101144.13;5036916;28;20205;-72
2022/05/14 09:18:14;;;;;;;0.20;0.20;;;;;;;18.88;45.98;101141.56;5040697;28;20205;-70
2022/05/14 09:20:47;;;;;;;0.50;0.20;;;;;;;18.99;45.99;101134.88;5033615;28;20651;-72
2022/05/14 09:26:34;;;;;;;0.27;0.27;;;;;;;19.10;46.70;101133.38;5032317;28;20266;-70
2022/05/14 09:29:17;;;;;;;1.10;0.27;;;;;;;19.36;47.55;101138.16;5036879;28;20227;-70
2022/05/14 09:31:52;;;;;;;1.03;0.43;;;;;;;19.59;45.12;101132.44;5057615;28;20624;-69
2022/05/14 09:34:19;;;;;;;0.67;0.47;;;;;;;19.78;44.25;101134.94;5057785;28;20198;-71
2022/05/14 09:36:49;;;;;;;0.53;0.23;;;;;;;19.65;46.53;101133.91;5057574;28;20192;-70
2022/05/14 09:39:18;;;;;;;0.30;0.30;;;;;;;19.62;45.37;101140.22;5056975;28;20239;-69
2022/05/14 09:41:49;;;;;;;0.93;0.30;;;;;;;19.27;44.60;101131.59;5056395;28;20196;-69
2022/05/14 09:44:21;;;;;;;0.30;0.30;;;;;;;18.99;43.24;101146.28;5051042;28;20291;-68
2022/05/14 09:46:49;;;;;;;0.40;0.40;;;;;;;19.23;44.05;101140.63;5050203;28;20208;-71
2022/05/14 09:49:21;;;;;;;3.50;0.37;;;;;;;19.54;44.19;101136.28;5055948;28;20269;-69
2022/05/14 09:51:52;;;;;;;0.30;0.23;;;;;;;19.65;43.11;101141.84;5051309;28;20203;-71
2022/05/14 09:54:22;;;;;;;1.00;0.53;;;;;;;19.77;43.25;101135.03;5055777;28;20211;-69
2022/05/14 09:57:21;;;;;;;0.50;0.40;;;;;;;19.95;44.40;101135.78;5052079;28;20683;-71
2022/05/14 10:00:01;;;;;;;0.10;0.10;;;;;;;20.02;43.87;101134.50;5048866;28;20223;-70
2022/05/14 10:02:53;;;;;;;0.23;0.23;;;;;;;19.61;42.66;101130.59;5049904;28;20291;-71
2022/05/14 10:05:40;;;;;;;0.20;0.20;;;;;;;19.62;43.62;101131.44;5050386;28;20663;-69
2022/05/14 10:08:20;;;;;;;0.37;0.27;;;;;;;19.50;43.57;101127.66;5052650;28;20199;-69
2022/05/14 10:14:52;;;;;;;0.33;0.27;;;;;;;19.88;42.83;101126.50;5051673;28;20210;-70
2022/05/14 10:17:37;;;;;;;0.40;0.40;;;;;;;20.00;42.42;101123.16;5048511;28;20200;-71
2022/05/14 10:20:18;;;;;;;0.30;0.30;;;;;;;19.92;41.80;101125.38;5043882;28;20212;-71
2022/05/14 10:28:45;;;;;;;5.20;0.40;;;;;;;19.94;42.86;101119.03;5049229;28;20210;-69
2022/05/14 10:31:24;;;;;;;0.27;0.20;;;;;;;19.97;43.65;101115.38;5040903;28;20187;-71
2022/05/14 10:34:08;;;;;;;0.13;0.10;;;;;;;19.77;43.64;101113.84;5037451;28;20195;-70
2022/05/14 10:36:53;;;;;;;0.00;0.00;;;;;;;19.71;44.06;101112.38;5040863;28;20196;-70
2022/05/14 10:39:25;;;;;;;0.37;0.37;;;;;;;19.63;43.22;101115.47;5032805;28;20230;-70
2022/05/14 10:42:00;;;;;;;1.07;0.50;;;;;;;19.54;43.35;101113.34;5035340;28;20202;-71
2022/05/14 10:44:36;;;;;;;0.30;0.30;;;;;;;19.29;43.16;101111.19;5038088;28;20302;-71
2022/05/14 10:47:10;;;;;;;0.30;0.30;;;;;;;19.34;44.63;101111.81;5039746;28;20298;-71
2022/05/14 10:49:43;;;;;;;0.27;0.27;;;;;;;19.39;43.54;101104.47;5032089;28;20231;-70
2022/05/14 10:52:15;;;;;;;0.13;0.10;;;;;;;19.59;44.02;101108.63;5031219;28;20227;-70
2022/05/14 10:54:43;;;;;;;0.10;0.10;;;;;;;19.91;43.51;101100.72;5038092;28;20200;-70
2022/05/14 10:57:28;;;;;;;0.17;0.17;;;;;;;20.17;44.04;101093.03;5041837;28;20191;-70
2022/05/14 11:00:06;;;;;;;0.40;0.40;;;;;;;20.27;42.48;101101.28;5032768;28;20234;-70
2022/05/14 11:02:36;;;;;;;0.50;0.50;;;;;;;20.05;43.55;101090.16;5036251;28;20214;-71
2022/05/14 11:08:49;;;;;;;0.13;0.13;;;;;;;19.76;43.78;101096.28;5035974;28;20666;-71
2022/05/14 11:11:20;;;;;;;0.30;0.30;;;;;;;20.02;44.76;101097.44;5039063;28;20956;-71
2022/05/14 11:14:01;;;;;;;0.73;0.40;;;;;;;20.26;42.16;101097.78;5036152;28;20208;-71
2022/05/14 11:16:40;;;;;;;0.20;0.20;;;;;;;20.12;42.35;101095.09;5037495;28;20203;-71
2022/05/14 11:19:08;;;;;;;0.50;0.30;;;;;;;20.03;42.58;101089.41;5034814;28;20315;-71
2022/05/14 11:21:39;;;;;;;0.23;0.20;;;;;;;20.09;42.99;101087.31;5034340;28;20196;-70
2022/05/14 11:24:07;;;;;;;0.40;0.40;;;;;;;19.91;43.54;101092.78;5032766;28;20350;-71
2022/05/14 11:26:45;;;;;;;0.30;0.20;;;;;;;19.74;43.04;101096.38;5034109;28;20200;-71
2022/05/14 11:29:16;;;;;;;0.30;0.30;;;;;;;19.73;43.60;101088.50;5035335;28;20215;-70
2022/05/14 11:31:52;;;;;;;0.33;0.33;;;;;;;19.56;43.46;101094.72;5040220;28;20195;-70
2022/05/14 11:34:22;;;;;;;0.40;0.30;;;;;;;19.53;43.86;101092.28;5031140;28;20290;-70
2022/05/14 11:40:36;;;;;;;1.17;0.30;;;;;;;19.82;43.36;101082.69;5036777;28;20254;-70
2022/05/14 11:43:11;;;;;;;0.53;0.40;;;;;;;19.76;43.79;101083.91;5033486;28;20281;-70
2022/05/14 11:45:41;;;;;;;0.30;0.20;;;;;;;19.68;43.84;101081.69;5031725;28;20903;-70
2022/05/14 11:48:12;;;;;;;0.30;0.30;;;;;;;19.60;43.22;101083.06;5030752;28;20212;-70
2022/05/14 11:50:50;;;;;;;0.63;0.30;;;;;;;19.68;44.77;101079.03;5030642;28;20497;-71
2022/05/14 11:53:24;;;;;;;0.10;0.10;;;;;;;19.71;43.62;101083.28;5035171;28;21023;-70
2022/05/14 11:55:55;;;;;;;0.20;0.20;;;;;;;19.69;43.41;101082.53;5035547;28;20200;-70
2022/05/14 11:58:29;;;;;;;0.57;0.57;;;;;;;19.67;43.57;101082.63;5033968;28;20206;-70
2022/05/14 12:00:57;;;;;;;0.30;0.30;;;;;;;19.60;43.24;101081.25;5029633;28;20229;-70
2022/05/14 12:03:29;;;;;;;0.30;0.30;;;;;;;19.93;44.79;101080.31;5031171;28;20215;-70
2022/05/14 12:09:55;;;;;;;0.57;0.20;;;;;;;20.65;41.09;101083.13;5037700;28;20249;-70
2022/05/14 12:12:30;;;;;;;1.80;0.53;;;;;;;20.81;42.29;101077.72;5032654;28;20200;-71
2022/05/14 12:15:05;;;;;;;0.20;0.20;;;;;;;21.08;43.37;101067.19;5036284;28;20199;-70
2022/05/14 12:17:31;;;;;;;0.13;0.13;;;;;;;20.91;41.65;101086.78;5029249;28;20681;-70
2022/05/14 12:19:58;;;;;;;1.60;1.17;;;;;;;20.75;40.70;101081.59;5035137;28;20241;-70
2022/05/14 12:22:29;;;;;;;6.87;0.40;;;;;;;20.71;41.27;101080.09;5038921;28;20199;-70
2022/05/14 12:25:00;;;;;;;0.37;0.33;;;;;;;20.75;40.78;101068.34;5032562;28;20257;-70
2022/05/14 12:27:29;;;;;;;2.50;0.40;;;;;;;20.83;43.92;101062.59;5031762;28;20679;-70
2022/05/14 12:29:58;;;;;;;1.33;0.57;;;;;;;21.07;39.64;101078.75;5039436;28;20223;-70
2022/05/14 12:33:13;;;;;;;0.33;0.20;;;;;;;21.25;39.83;101076.72;5034479;28;20208;-71
2022/05/14 12:35:44;;;;;;;0.40;0.30;;;;;;;21.29;41.36;101070.25;5037053;28;20222;-70
2022/05/14 12:38:13;;;;;;;1.27;0.17;;;;;;;21.31;41.51;101078.97;5032089;28;20203;-70
2022/05/14 12:40:41;;;;;;;0.43;0.40;;;;;;;21.12;41.13;101073.13;5048351;28;20211;-71
2022/05/14 12:43:09;;;;;;;0.20;0.20;;;;;;;21.08;40.42;101072.47;5047920;28;20439;-71
2022/05/14 12:45:38;;;;;;;0.70;0.50;;;;;;;21.10;41.08;101064.44;5031510;28;21516;-70